createdAt,value
2019-01-03T00:01:58.508Z,-0.21
2019-01-03T00:04:40.595Z,-0.15
2019-01-03T00:07:29.654Z,-0.42
2019-01-03T00:10:15.871Z,-0.40
2019-01-03T00:13:20.019Z,-0.36
2019-01-03T00:16:12.029Z,-0.51
2019-01-03T00:18:59.765Z,-0.23
2019-01-03T00:21:47.525Z,-0.41
2019-01-03T00:24:35.280Z,-0.55
2019-01-03T00:27:23.136Z,-0.47
2019-01-03T00:30:12.227Z,-0.53
2019-01-03T00:32:59.817Z,-0.63
2019-01-03T00:35:57.679Z,-0.70
2019-01-03T00:38:55.678Z,-0.44
2019-01-03T00:41:53.647Z,-0.60
2019-01-03T00:44:45.772Z,-0.48
2019-01-03T00:47:38.021Z,-0.51
2019-01-03T00:50:32.005Z,-0.49
2019-01-03T00:53:24.221Z,-0.57
2019-01-03T00:56:11.861Z,-0.60
2019-01-03T00:58:57.829Z,-0.59
2019-01-03T01:01:40.975Z,-0.63
2019-01-03T01:04:37.055Z,-0.57
2019-01-03T01:07:19.794Z,-0.63
2019-01-03T01:10:05.729Z,-0.56
2019-01-03T01:12:53.615Z,-0.49
2019-01-03T01:15:41.180Z,-0.57
2019-01-03T01:18:39.836Z,-0.55
2019-01-03T01:21:25.653Z,-0.77
2019-01-03T01:24:13.942Z,-0.85
2019-01-03T01:27:21.073Z,-0.76
2019-01-03T01:30:05.793Z,-0.74
2019-01-03T01:33:13.054Z,-0.72
2019-01-03T01:36:02.163Z,-0.74
2019-01-03T01:38:54.852Z,-0.76
2019-01-03T01:41:40.900Z,-0.71
2019-01-03T01:44:28.926Z,-0.66
2019-01-03T01:47:27.366Z,-0.68
2019-01-03T01:50:16.440Z,-0.76
2019-01-03T01:53:11.640Z,-0.96
2019-01-03T01:56:09.507Z,-1.02
2019-01-03T01:58:57.311Z,-0.70
2019-01-03T02:01:44.197Z,-0.91
2019-01-03T02:04:31.820Z,-1.20
2019-01-03T02:07:19.427Z,-1.16
2019-01-03T02:10:07.369Z,-1.34
2019-01-03T02:12:56.807Z,-1.19
2019-01-03T02:15:36.158Z,-1.23
2019-01-03T02:18:36.047Z,-1.43
2019-01-03T02:21:25.419Z,-1.43
2019-01-03T02:24:13.481Z,-1.67
2019-01-03T02:27:01.451Z,-1.70
2019-01-03T02:29:49.032Z,-1.81
2019-01-03T02:32:41.302Z,-1.94
2019-01-03T02:35:39.827Z,-2.03
2019-01-03T02:38:26.602Z,-2.09
2019-01-03T02:41:18.695Z,-2.10
2019-01-03T02:44:07.809Z,-2.08
2019-01-03T02:47:00.361Z,-2.04
2019-01-03T02:49:41.794Z,-1.82
2019-01-03T02:52:30.860Z,-1.84
2019-01-03T02:55:28.829Z,-1.80
2019-01-03T02:58:24.022Z,-1.81
2019-01-03T03:01:28.079Z,-1.63
2019-01-03T03:04:26.236Z,-1.63
2019-01-03T03:07:27.307Z,-1.46
2019-01-03T03:10:14.901Z,-1.40
2019-01-03T03:13:12.413Z,-1.35
2019-01-03T03:16:03.060Z,-1.37
2019-01-03T03:18:57.698Z,-1.52
2019-01-03T03:21:35.680Z,-1.60
2019-01-03T03:24:36.546Z,-1.50
2019-01-03T03:27:24.323Z,-1.75
2019-01-03T03:30:28.941Z,-1.68
2019-01-03T03:33:24.024Z,-1.68
2019-01-03T03:36:21.999Z,-1.63
2019-01-03T03:39:09.799Z,-1.56
2019-01-03T03:42:07.717Z,-1.63
2019-01-03T03:45:02.697Z,-1.54
2019-01-03T03:47:52.122Z,-1.52
2019-01-03T03:50:47.440Z,-1.46
2019-01-03T03:53:37.043Z,-1.37
2019-01-03T03:56:44.669Z,-1.39
2019-01-03T03:59:46.053Z,-1.39
2019-01-03T04:02:38.483Z,-1.41
2019-01-03T04:05:27.583Z,-1.52
2019-01-03T04:08:20.043Z,-1.49
2019-01-03T04:11:07.898Z,-1.57
2019-01-03T04:14:06.240Z,-1.42
2019-01-03T04:17:01.445Z,-1.53
2019-01-03T04:19:49.079Z,-1.46
2019-01-03T04:22:38.353Z,-1.33
2019-01-03T04:25:27.451Z,-1.47
2019-01-03T04:28:27.774Z,-1.44
2019-01-03T04:31:19.372Z,-1.56
2019-01-03T04:34:06.882Z,-1.52
2019-01-03T04:36:58.793Z,-1.63
2019-01-03T04:39:46.926Z,-1.65
2019-01-03T04:42:34.710Z,-1.71
2019-01-03T04:45:30.047Z,-1.84
2019-01-03T04:48:23.871Z,-1.81
2019-01-03T04:51:15.884Z,-1.84
2019-01-03T04:54:03.742Z,-1.80
2019-01-03T04:56:51.528Z,-1.41
2019-01-03T04:59:40.207Z,-1.43
2019-01-03T05:02:27.896Z,-1.75
2019-01-03T05:05:16.094Z,-1.74
2019-01-03T05:08:04.397Z,-1.85
2019-01-03T05:10:52.620Z,-1.88
2019-01-03T05:13:44.753Z,-1.73
2019-01-03T05:16:32.588Z,-2.04
2019-01-03T05:19:40.009Z,-1.87
2019-01-03T05:22:27.882Z,-2.00
2019-01-03T05:25:25.733Z,-1.93
2019-01-03T05:28:20.869Z,-1.61
2019-01-03T05:31:09.981Z,-1.80
2019-01-03T05:34:10.923Z,-1.96
2019-01-03T05:36:59.219Z,-1.91
2019-01-03T05:39:48.666Z,-1.92
2019-01-03T05:42:40.535Z,-1.92
2019-01-03T05:45:30.355Z,-1.69
2019-01-03T05:51:13.047Z,-1.62
2019-01-03T05:54:08.020Z,-1.63
2019-01-03T05:57:06.108Z,-1.43
2019-01-03T06:00:13.452Z,-1.61
2019-01-03T06:03:17.553Z,-1.53
2019-01-03T06:06:05.391Z,-1.60
2019-01-03T06:09:01.302Z,-1.33
2019-01-03T06:11:50.959Z,-1.36
2019-01-03T06:14:58.310Z,-1.55
2019-01-03T06:17:50.173Z,-1.48
2019-01-03T06:20:39.235Z,-1.47
2019-01-03T06:23:28.331Z,-1.59
2019-01-03T06:26:15.895Z,-1.51
2019-01-03T06:29:03.513Z,-1.18
2019-01-03T06:31:56.250Z,-1.33
2019-01-03T06:34:43.803Z,-1.23
2019-01-03T06:37:31.360Z,-1.39
2019-01-03T06:40:32.562Z,-1.19
2019-01-03T06:43:24.924Z,-1.49
2019-01-03T06:46:12.522Z,-1.44
2019-01-03T06:49:07.633Z,-1.62
2019-01-03T06:51:55.074Z,-1.46
2019-01-03T06:54:50.880Z,-1.44
2019-01-03T06:57:49.934Z,-1.53
2019-01-03T07:00:37.762Z,-1.37
2019-01-03T07:03:35.791Z,-1.46
2019-01-03T07:06:23.315Z,-1.26
2019-01-03T07:09:30.126Z,-1.06
2019-01-03T07:12:37.144Z,-1.47
2019-01-03T07:15:24.712Z,-1.26
2019-01-03T07:18:22.843Z,-1.33
2019-01-03T07:21:14.965Z,-1.45
2019-01-03T07:24:00.436Z,-1.51
2019-01-03T07:27:01.258Z,-1.62
2019-01-03T07:29:49.705Z,-1.35
2019-01-03T07:35:23.655Z,-1.14
2019-01-03T07:38:11.767Z,-1.35
2019-01-03T07:41:03.702Z,-1.38
2019-01-03T07:43:44.589Z,-1.48
2019-01-03T07:46:33.732Z,-1.27
2019-01-03T07:49:35.148Z,-1.26
2019-01-03T07:52:33.622Z,-1.30
2019-01-03T07:55:23.401Z,-1.45
2019-01-03T07:58:12.575Z,-1.28
2019-01-03T08:01:00.406Z,-1.49
2019-01-03T08:04:02.013Z,-1.38
2019-01-03T08:06:50.767Z,-1.29
2019-01-03T08:09:38.303Z,-1.08
2019-01-03T08:12:33.546Z,-0.49
2019-01-03T08:15:25.846Z,1.17
2019-01-03T08:18:07.637Z,3.70
2019-01-03T08:21:15.002Z,5.31
2019-01-03T08:24:06.370Z,7.89
2019-01-03T08:27:01.251Z,10.32
2019-01-03T08:29:48.889Z,11.09
2019-01-03T08:32:40.153Z,11.85
2019-01-03T08:35:32.116Z,12.61
2019-01-03T08:38:35.572Z,12.78
2019-01-03T08:41:27.722Z,14.33
2019-01-03T08:44:22.677Z,14.22
2019-01-03T08:47:10.415Z,15.49
2019-01-03T08:49:58.155Z,15.65
2019-01-03T08:53:05.135Z,16.83
2019-01-03T08:55:52.670Z,16.87
2019-01-03T08:58:46.638Z,15.79
2019-01-03T09:01:35.978Z,15.53
2019-01-03T09:04:34.159Z,12.45
2019-01-03T09:07:32.477Z,11.99
2019-01-03T09:10:21.841Z,13.26
2019-01-03T09:13:09.395Z,12.63
2019-01-03T09:16:00.475Z,14.26
2019-01-03T09:18:48.242Z,15.25
2019-01-03T09:21:32.148Z,17.49
2019-01-03T09:24:19.936Z,17.67
2019-01-03T09:27:12.461Z,17.61
2019-01-03T09:30:00.233Z,18.24
2019-01-03T09:32:48.231Z,20.28
2019-01-03T09:35:36.187Z,20.67
2019-01-03T09:38:25.336Z,20.94
2019-01-03T09:41:31.006Z,21.43
2019-01-03T09:44:29.097Z,20.51
2019-01-03T09:46:59.398Z,21.05
2019-01-03T09:49:29.648Z,18.25
2019-01-03T09:52:00.224Z,15.87
2019-01-03T09:54:30.350Z,13.72
2019-01-03T09:57:00.519Z,11.79
2019-01-03T09:59:31.195Z,9.52
2019-01-03T10:02:01.371Z,9.14
2019-01-03T10:04:31.611Z,8.35
2019-01-03T10:07:01.732Z,6.87
2019-01-03T10:09:33.203Z,6.52
2019-01-03T10:12:03.428Z,6.47
2019-01-03T10:14:34.617Z,5.99
2019-01-03T10:17:05.068Z,5.41
2019-01-03T10:19:35.732Z,5.48
2019-01-03T10:22:06.225Z,5.58
2019-01-03T10:24:36.454Z,5.71
2019-01-03T10:27:06.568Z,5.13
2019-01-03T10:29:36.792Z,5.38
2019-01-03T10:32:07.078Z,4.64
2019-01-03T10:34:37.218Z,5.05
2019-01-03T10:37:07.802Z,5.02
2019-01-03T10:39:37.944Z,5.28
2019-01-03T10:42:08.067Z,5.18
2019-01-03T10:44:38.232Z,5.59
2019-01-03T10:47:08.366Z,5.51
2019-01-03T10:49:38.736Z,5.57
2019-01-03T10:52:10.012Z,5.81
2019-01-03T10:54:40.397Z,5.35
2019-01-03T10:57:10.880Z,5.16
2019-01-03T10:59:41.046Z,5.13
2019-01-03T11:02:11.170Z,5.22
2019-01-03T11:04:41.321Z,5.46
2019-01-03T11:07:17.082Z,5.11
2019-01-03T11:09:47.291Z,4.97
2019-01-03T11:12:17.975Z,5.17
2019-01-03T11:14:48.408Z,5.05
2019-01-03T11:17:19.079Z,4.61
2019-01-03T11:19:49.339Z,4.44
2019-01-03T11:22:19.751Z,4.04
2019-01-03T11:24:50.030Z,3.72
2019-01-03T11:41:12.894Z,3.24
2019-01-03T11:43:43.199Z,3.41
2019-01-03T11:46:13.364Z,2.98
2019-01-03T11:48:43.484Z,3.15
2019-01-03T11:51:13.950Z,3.20
2019-01-03T11:53:44.106Z,3.66
2019-01-03T11:56:14.255Z,3.35
2019-01-03T11:58:44.441Z,3.66
2019-01-03T12:01:14.586Z,3.67
2019-01-03T12:03:45.157Z,3.62
2019-01-03T12:06:15.274Z,3.55
2019-01-03T12:08:45.459Z,3.27
2019-01-03T12:11:16.065Z,3.34
2019-01-03T12:13:46.229Z,3.59
2019-01-03T12:16:16.376Z,3.11
2019-01-03T12:18:46.526Z,3.04
2019-01-03T12:21:16.818Z,3.46
2019-01-03T12:23:46.980Z,3.08
2019-01-03T12:26:18.177Z,3.32
2019-01-03T12:28:48.607Z,2.98
2019-01-03T12:31:19.664Z,2.94
2019-01-03T12:33:49.870Z,2.84
2019-01-03T12:36:20.017Z,2.83
2019-01-03T12:38:50.141Z,2.61
2019-01-03T12:41:21.321Z,2.87
2019-01-03T12:43:51.451Z,2.86
2019-01-03T12:46:21.646Z,2.80
2019-01-03T12:48:52.086Z,2.82
2019-01-03T12:51:22.243Z,2.83
2019-01-03T12:53:52.400Z,3.33
2019-01-03T12:56:22.558Z,2.55
2019-01-03T12:58:53.062Z,2.54
2019-01-03T13:01:23.203Z,2.63
2019-01-03T13:03:53.382Z,2.60
2019-01-03T13:06:23.479Z,2.47
2019-01-03T13:08:53.611Z,2.62
2019-01-03T13:11:24.015Z,2.66
2019-01-03T13:13:54.177Z,2.50
2019-01-03T13:16:24.340Z,2.70
2019-01-03T13:18:55.750Z,2.76
2019-01-03T13:21:26.264Z,2.62
2019-01-03T13:23:56.523Z,2.75
2019-01-03T13:26:27.105Z,2.92
2019-01-03T13:28:57.362Z,2.90
2019-01-03T13:31:27.627Z,2.99
2019-01-03T13:33:57.845Z,2.76
2019-01-03T13:36:28.184Z,2.70
2019-01-03T13:38:58.642Z,2.70
2019-01-03T13:41:29.112Z,2.62
2019-01-03T13:43:59.555Z,2.56
2019-01-03T13:46:29.757Z,2.42
2019-01-03T13:49:00.042Z,2.01
2019-01-03T13:51:30.418Z,2.35
2019-01-03T13:54:00.627Z,2.33
2019-01-03T13:56:31.854Z,2.35
2019-01-03T13:59:01.983Z,2.31
2019-01-03T14:01:32.163Z,2.27
2019-01-03T14:04:02.295Z,2.31
2019-01-03T14:06:32.441Z,2.76
2019-01-03T14:09:03.581Z,2.37
2019-01-03T14:11:34.291Z,2.06
2019-01-03T14:14:04.664Z,2.10
2019-01-03T14:16:34.807Z,2.07
2019-01-03T14:19:05.026Z,2.16
2019-01-03T14:21:35.131Z,2.22
2019-01-03T14:24:05.290Z,2.05
2019-01-03T14:26:35.390Z,2.00
2019-01-03T14:29:05.641Z,2.22
2019-01-03T14:31:36.059Z,2.16
2019-01-03T14:34:06.197Z,1.97
2019-01-03T14:36:36.626Z,1.76
2019-01-03T14:39:08.012Z,1.95
2019-01-03T14:41:38.161Z,1.90
2019-01-03T14:44:08.611Z,1.79
2019-01-03T14:46:38.994Z,1.80
2019-01-03T14:49:09.135Z,1.42
2019-01-03T14:51:39.564Z,1.52
2019-01-03T14:54:09.686Z,1.52
2019-01-03T14:56:39.976Z,1.41
2019-01-03T14:59:10.220Z,1.45
2019-01-03T15:01:40.633Z,1.38
2019-01-03T15:04:10.806Z,1.26
2019-01-03T15:06:40.965Z,1.17
2019-01-03T15:09:11.130Z,1.26
2019-01-03T15:11:41.856Z,1.35
2019-01-03T15:14:11.986Z,1.39
2019-01-03T15:16:42.199Z,1.58
2019-01-03T15:19:12.357Z,1.17
2019-01-03T15:21:42.467Z,1.16
2019-01-03T15:24:12.876Z,0.89
2019-01-03T15:26:43.073Z,0.93
2019-01-03T15:29:13.202Z,1.11
2019-01-03T15:31:44.682Z,1.05
2019-01-03T15:34:14.860Z,1.02
2019-01-03T15:36:45.037Z,1.11
2019-01-03T15:39:15.126Z,1.09
2019-01-03T15:41:45.250Z,0.96
2019-01-03T15:44:15.531Z,1.08
2019-01-03T15:46:46.172Z,1.00
2019-01-03T15:49:16.275Z,0.91
2019-01-03T15:51:46.542Z,0.87
2019-01-03T15:54:16.882Z,0.99
2019-01-03T15:56:46.996Z,0.91
2019-01-03T15:59:18.252Z,0.87
2019-01-03T16:01:48.352Z,0.96
2019-01-03T16:04:18.547Z,0.92
2019-01-03T16:06:48.771Z,0.84
2019-01-03T16:09:18.909Z,1.16
2019-01-03T16:11:49.277Z,0.92
2019-01-03T16:14:19.481Z,1.33
2019-01-03T16:16:49.648Z,1.18
2019-01-03T16:19:19.758Z,1.04
2019-01-03T16:21:50.524Z,1.10
2019-01-03T16:24:20.965Z,0.81
2019-01-03T16:37:21.913Z,1.00
2019-01-03T16:46:25.568Z,0.84
2019-01-03T16:48:55.902Z,0.95
2019-01-03T16:51:27.190Z,0.82
2019-01-03T16:53:57.681Z,0.86
2019-01-03T16:56:28.107Z,0.69
2019-01-03T16:58:58.825Z,0.91
2019-01-03T17:01:29.090Z,0.74
2019-01-03T17:03:59.360Z,0.71
2019-01-03T17:06:29.762Z,0.83
2019-01-03T17:09:00.306Z,1.00
2019-01-03T17:11:32.232Z,1.07
2019-01-03T17:14:02.666Z,0.87
2019-01-03T17:16:32.768Z,0.81
2019-01-03T17:19:03.021Z,0.71
2019-01-03T17:21:33.106Z,0.69
2019-01-03T17:24:03.196Z,0.68
2019-01-03T17:26:33.610Z,0.76
2019-01-03T17:29:04.079Z,0.65
2019-01-03T17:31:34.261Z,0.72
2019-01-03T17:34:04.528Z,0.76
2019-01-03T17:36:34.643Z,0.97
2019-01-03T17:39:06.538Z,0.99
2019-01-03T17:41:36.855Z,0.87
2019-01-03T17:44:07.329Z,0.92
2019-01-03T17:46:37.745Z,0.88
2019-01-03T17:49:07.859Z,0.83
2019-01-03T17:51:38.012Z,1.02
2019-01-03T17:54:08.928Z,1.06
2019-01-03T17:56:39.419Z,1.01
2019-01-03T17:59:09.530Z,1.06
2019-01-03T18:01:39.899Z,0.93
2019-01-03T18:04:10.014Z,0.82
2019-01-03T18:06:40.159Z,0.90
2019-01-03T18:09:10.715Z,1.12
2019-01-03T18:11:40.916Z,1.33
2019-01-03T18:14:12.541Z,1.10
2019-01-03T18:16:42.717Z,1.16
2019-01-03T18:19:12.878Z,1.21
2019-01-03T18:21:43.294Z,1.02
2019-01-03T18:24:13.444Z,1.18
2019-01-03T18:26:43.832Z,0.81
2019-01-03T18:29:13.937Z,0.89
2019-01-03T18:31:44.139Z,0.92
2019-01-03T18:34:14.340Z,0.97
2019-01-03T18:36:44.544Z,0.96
2019-01-03T18:39:14.725Z,0.77
2019-01-03T18:41:44.823Z,0.73
2019-01-03T18:44:15.981Z,1.03
2019-01-03T18:46:46.070Z,1.42
2019-01-03T18:49:16.348Z,1.05
2019-01-03T18:51:46.502Z,1.18
2019-01-03T18:54:17.598Z,1.17
2019-01-03T18:56:47.736Z,1.14
2019-01-03T18:59:17.851Z,1.13
2019-01-03T19:01:48.076Z,1.08
2019-01-03T19:04:18.459Z,1.30
2019-01-03T19:06:48.601Z,1.12
2019-01-03T19:09:18.700Z,1.05
2019-01-03T19:11:48.994Z,1.21
2019-01-03T19:14:19.180Z,0.89
2019-01-03T19:16:49.250Z,0.95
2019-01-03T19:19:19.495Z,0.92
2019-01-03T19:21:49.847Z,1.03
2019-01-03T19:24:21.260Z,1.14
2019-01-03T19:26:51.447Z,1.22
2019-01-03T19:29:21.573Z,0.97
2019-01-03T19:31:52.713Z,0.88
2019-01-03T19:34:22.893Z,0.99
2019-01-03T19:36:53.000Z,1.00
2019-01-03T19:39:23.413Z,1.20
2019-01-03T19:41:53.900Z,1.33
2019-01-03T19:44:24.032Z,1.20
2019-01-03T19:46:54.177Z,0.86
2019-01-03T19:49:24.333Z,1.03
2019-01-03T19:51:54.511Z,1.23
2019-01-03T19:54:24.994Z,0.98
2019-01-03T19:56:55.112Z,0.98
2019-01-03T19:59:25.506Z,1.17
2019-01-03T20:01:55.623Z,1.07
2019-01-03T20:04:25.747Z,0.62
2019-01-03T20:06:56.208Z,0.90
2019-01-03T20:09:26.368Z,0.79
2019-01-03T20:11:56.959Z,1.06
2019-01-03T20:14:27.192Z,0.87
2019-01-03T20:16:57.393Z,1.04
2019-01-03T20:19:27.520Z,1.02
2019-01-03T20:21:57.796Z,0.85
2019-01-03T20:24:28.911Z,1.02
2019-01-03T20:26:59.053Z,0.98
2019-01-03T20:29:29.191Z,0.72
2019-01-03T20:31:59.704Z,0.83
2019-01-03T20:34:30.067Z,1.01
2019-01-03T20:37:00.210Z,1.07
2019-01-03T20:39:30.659Z,0.89
2019-01-03T20:42:00.929Z,0.97
2019-01-03T20:44:31.374Z,0.99
2019-01-03T20:47:01.815Z,0.84
2019-01-03T20:49:32.269Z,0.77
2019-01-03T20:52:02.946Z,0.88
2019-01-03T20:54:33.097Z,0.97
2019-01-03T20:57:03.224Z,0.94
2019-01-03T20:59:33.547Z,1.05
2019-01-03T21:02:03.976Z,0.93
2019-01-03T21:04:34.132Z,1.03
2019-01-03T21:07:04.277Z,1.10
2019-01-03T21:09:34.370Z,0.95
2019-01-03T21:12:04.881Z,1.04
2019-01-03T21:14:35.287Z,0.88
2019-01-03T21:17:05.422Z,0.95
2019-01-03T21:19:35.894Z,0.95
2019-01-03T21:22:06.039Z,1.14
2019-01-03T21:24:36.290Z,0.98
2019-01-03T21:27:06.443Z,1.03
2019-01-03T21:29:36.631Z,1.10
2019-01-03T21:32:06.796Z,0.96
2019-01-03T21:34:37.353Z,1.02
2019-01-03T21:37:08.488Z,1.11
2019-01-03T21:39:38.586Z,0.94
2019-01-03T21:42:08.826Z,1.21
2019-01-03T21:44:38.919Z,0.87
2019-01-03T21:47:09.846Z,0.94
2019-01-03T21:49:40.304Z,1.07
2019-01-03T21:52:10.551Z,0.91
2019-01-03T21:54:40.858Z,0.81
2019-01-03T21:57:11.121Z,0.91
2019-01-03T21:59:41.579Z,1.03
2019-01-03T22:02:11.942Z,1.14
2019-01-03T22:04:42.087Z,1.05
2019-01-03T22:07:12.620Z,1.28
2019-01-03T22:09:42.758Z,1.19
2019-01-03T22:12:12.932Z,1.15
2019-01-03T22:14:43.177Z,1.26
2019-01-03T22:17:13.366Z,1.11
2019-01-03T22:19:43.782Z,0.94
2019-01-03T22:22:13.922Z,0.94
2019-01-03T22:24:44.611Z,1.10
2019-01-03T22:27:14.707Z,0.89
2019-01-03T22:29:44.824Z,0.90
2019-01-03T22:32:15.187Z,1.05
2019-01-03T22:34:45.648Z,1.07
2019-01-03T22:37:15.763Z,0.98
2019-01-03T22:39:46.168Z,0.99
2019-01-03T22:42:16.291Z,1.13
2019-01-03T22:44:46.457Z,1.15
2019-01-03T22:47:16.955Z,0.99
2019-01-03T22:49:47.066Z,1.26
2019-01-03T22:52:17.489Z,1.05
2019-01-03T22:54:47.593Z,1.02
2019-01-03T22:57:18.000Z,1.02
2019-01-03T22:59:48.704Z,0.84
2019-01-03T23:02:18.831Z,0.83
2019-01-03T23:04:49.603Z,0.87
2019-01-03T23:07:19.892Z,1.02
2019-01-03T23:09:50.046Z,1.04
2019-01-03T23:12:20.166Z,0.98
2019-01-03T23:14:50.694Z,1.21
2019-01-03T23:17:21.010Z,1.21
2019-01-03T23:19:51.152Z,1.11
2019-01-03T23:22:21.294Z,1.03
2019-01-03T23:24:51.452Z,1.01
2019-01-03T23:27:21.852Z,0.96
2019-01-03T23:29:52.259Z,1.04
2019-01-03T23:32:22.381Z,0.99
2019-01-03T23:34:52.487Z,0.91
2019-01-03T23:37:22.584Z,1.18
2019-01-03T23:39:52.704Z,1.07
2019-01-03T23:42:22.812Z,1.02
2019-01-03T23:45:14.961Z,1.06
2019-01-03T23:47:45.078Z,1.10
2019-01-03T23:50:17.273Z,1.05
2019-01-03T23:52:47.388Z,0.87
2019-01-03T23:55:17.820Z,0.96
2019-01-03T23:57:47.923Z,0.81
